EXS5816 EGGD-EGJJ
Flight info
| Callsign | EXS5816 |
|---|---|
| Flight time | 0h 41m |
| Altitude | 9000 |
| Route | EXMOR N40 KLAKI L149 BIGNO |
| Aircraft | A321/M-SDE3FGHIRWY/LB1 |
Departure
| Time | 2026-05-07 17:52 |
|---|---|
| Airport | Bristol Airport (EGGD) |
Arrival
| Time | 2026-05-07 18:33 |
|---|---|
| Airport | Jersey Airport (EGJJ) |
| Time | Latitude | Longitude | Altitude | Speed | Heading |
|---|---|---|---|---|---|
| 2026-05-07 17:42 | 51.38525 | -2.70901 | 611 ft | 0 kts | 267° |
| 2026-05-07 17:42 | 51.38525 | -2.70890 | 624 ft | 3 kts | 267° |
| 2026-05-07 17:43 | 51.38528 | -2.70859 | 621 ft | 3 kts | 239° |
| 2026-05-07 17:43 | 51.38542 | -2.70833 | 623 ft | 3 kts | 206° |
| 2026-05-07 17:43 | 51.38550 | -2.70827 | 625 ft | 0 kts | 194° |
| 2026-05-07 17:47 | 51.38535 | -2.70830 | 617 ft | 9 kts | 184° |
| 2026-05-07 17:48 | 51.38527 | -2.70831 | 616 ft | 8 kts | 183° |
| 2026-05-07 17:48 | 51.38510 | -2.70831 | 614 ft | 6 kts | 180° |
| 2026-05-07 17:49 | 51.38493 | -2.70828 | 618 ft | 4 kts | 165° |
| 2026-05-07 17:49 | 51.38471 | -2.70720 | 618 ft | 18 kts | 70° |
| 2026-05-07 17:49 | 51.38455 | -2.70550 | 613 ft | 15 kts | 128° |
| 2026-05-07 17:50 | 51.38372 | -2.70491 | 619 ft | 10 kts | 169° |
| 2026-05-07 17:50 | 51.38323 | -2.70506 | 624 ft | 4 kts | 234° |
| 2026-05-07 17:50 | 51.38317 | -2.70585 | 611 ft | 13 kts | 265° |
| 2026-05-07 17:50 | 51.38312 | -2.70781 | 606 ft | 19 kts | 266° |
| 2026-05-07 17:51 | 51.38310 | -2.70818 | 605 ft | 0 kts | 271° |
| 2026-05-07 17:51 | 51.38306 | -2.70930 | 603 ft | 47 kts | 268° |
| 2026-05-07 17:52 | 51.38264 | -2.71977 | 629 ft | 134 kts | 266° |
| 2026-05-07 17:52 | 51.38209 | -2.73596 | 1316 ft | 146 kts | 264° |
| 2026-05-07 17:52 | 51.38151 | -2.75319 | 2081 ft | 167 kts | 263° |
| 2026-05-07 17:52 | 51.38082 | -2.77316 | 2808 ft | 193 kts | 264° |
| 2026-05-07 17:53 | 51.38004 | -2.79584 | 3659 ft | 217 kts | 264° |
| 2026-05-07 17:53 | 51.37917 | -2.82128 | 4552 ft | 242 kts | 265° |
| 2026-05-07 17:53 | 51.37816 | -2.84942 | 5516 ft | 261 kts | 262° |
| 2026-05-07 17:53 | 51.37231 | -2.87687 | 6665 ft | 266 kts | 233° |
| 2026-05-07 17:54 | 51.35972 | -2.89875 | 7922 ft | 270 kts | 223° |
| 2026-05-07 17:54 | 51.34511 | -2.91987 | 8633 ft | 298 kts | 221° |
| 2026-05-07 17:54 | 51.32865 | -2.94322 | 8921 ft | 336 kts | 222° |
| 2026-05-07 17:54 | 51.31072 | -2.96955 | 9012 ft | 373 kts | 223° |
| 2026-05-07 17:55 | 51.29145 | -3.00040 | 9363 ft | 388 kts | 226° |
| 2026-05-07 17:55 | 51.27486 | -3.02958 | 10634 ft | 331 kts | 233° |
| 2026-05-07 17:55 | 51.26428 | -3.05921 | 11914 ft | 286 kts | 246° |
| 2026-05-07 17:55 | 51.25740 | -3.08761 | 13284 ft | 263 kts | 249° |
| 2026-05-07 17:56 | 51.25157 | -3.11375 | 14574 ft | 237 kts | 249° |
| 2026-05-07 17:56 | 51.24558 | -3.13886 | 15011 ft | 251 kts | 247° |
| 2026-05-07 17:56 | 51.23843 | -3.16590 | 15010 ft | 278 kts | 245° |
| 2026-05-07 17:56 | 51.23014 | -3.19496 | 15022 ft | 295 kts | 244° |
| 2026-05-07 17:57 | 51.22135 | -3.22431 | 15017 ft | 299 kts | 243° |
| 2026-05-07 17:57 | 51.21514 | -3.24445 | 15018 ft | 300 kts | 243° |
| 2026-05-07 17:57 | 51.20263 | -3.28422 | 15018 ft | 300 kts | 242° |
| 2026-05-07 17:57 | 51.19276 | -3.31354 | 15013 ft | 300 kts | 234° |
| 2026-05-07 17:58 | 51.17767 | -3.33588 | 15009 ft | 299 kts | 209° |
| 2026-05-07 17:58 | 51.15817 | -3.34549 | 15010 ft | 301 kts | 184° |
| 2026-05-07 17:58 | 51.13743 | -3.34103 | 15015 ft | 304 kts | 166° |
| 2026-05-07 17:58 | 51.11708 | -3.33159 | 15011 ft | 305 kts | 165° |
| 2026-05-07 17:59 | 51.09675 | -3.32200 | 15006 ft | 305 kts | 165° |
| 2026-05-07 17:59 | 51.07640 | -3.31242 | 15007 ft | 305 kts | 165° |
| 2026-05-07 17:59 | 51.05579 | -3.30276 | 15007 ft | 305 kts | 166° |
| 2026-05-07 17:59 | 51.03545 | -3.29330 | 15009 ft | 305 kts | 166° |
| 2026-05-07 18:00 | 51.01539 | -3.28401 | 15011 ft | 304 kts | 166° |
| 2026-05-07 18:00 | 50.99504 | -3.27465 | 15009 ft | 304 kts | 166° |
| 2026-05-07 18:00 | 50.97472 | -3.26530 | 15005 ft | 304 kts | 166° |
| 2026-05-07 18:00 | 50.95440 | -3.25595 | 15007 ft | 304 kts | 166° |
| 2026-05-07 18:01 | 50.93407 | -3.24658 | 15007 ft | 304 kts | 166° |
| 2026-05-07 18:01 | 50.91378 | -3.23723 | 15010 ft | 304 kts | 166° |
| 2026-05-07 18:01 | 50.89349 | -3.22790 | 15010 ft | 304 kts | 166° |
| 2026-05-07 18:01 | 50.87319 | -3.21856 | 15012 ft | 304 kts | 166° |
| 2026-05-07 18:02 | 50.83237 | -3.19980 | 15012 ft | 303 kts | 166° |
| 2026-05-07 18:02 | 50.81212 | -3.19050 | 15013 ft | 303 kts | 166° |
| 2026-05-07 18:02 | 50.79212 | -3.18132 | 15008 ft | 303 kts | 166° |
| 2026-05-07 18:03 | 50.77159 | -3.17193 | 15015 ft | 303 kts | 166° |
| 2026-05-07 18:03 | 50.75137 | -3.16269 | 15011 ft | 303 kts | 166° |
| 2026-05-07 18:03 | 50.73110 | -3.15341 | 15005 ft | 303 kts | 166° |
| 2026-05-07 18:03 | 50.71111 | -3.14426 | 15005 ft | 303 kts | 166° |
| 2026-05-07 18:04 | 50.69060 | -3.13489 | 15000 ft | 303 kts | 166° |
| 2026-05-07 18:04 | 50.67062 | -3.12578 | 14999 ft | 303 kts | 166° |
| 2026-05-07 18:04 | 50.65038 | -3.11660 | 14995 ft | 303 kts | 166° |
| 2026-05-07 18:04 | 50.63014 | -3.10745 | 14996 ft | 303 kts | 166° |
| 2026-05-07 18:05 | 50.60960 | -3.09815 | 15002 ft | 303 kts | 166° |
| 2026-05-07 18:05 | 50.58963 | -3.08909 | 14996 ft | 303 kts | 166° |
| 2026-05-07 18:05 | 50.56940 | -3.07992 | 14995 ft | 303 kts | 166° |
| 2026-05-07 18:05 | 50.54914 | -3.07071 | 14996 ft | 303 kts | 166° |
| 2026-05-07 18:06 | 50.52892 | -3.06152 | 14994 ft | 303 kts | 166° |
| 2026-05-07 18:06 | 50.50868 | -3.05234 | 14990 ft | 303 kts | 166° |
| 2026-05-07 18:06 | 50.48844 | -3.04319 | 14986 ft | 303 kts | 166° |
| 2026-05-07 18:06 | 50.46820 | -3.03406 | 14987 ft | 303 kts | 166° |
| 2026-05-07 18:07 | 50.44770 | -3.02483 | 14987 ft | 303 kts | 166° |
| 2026-05-07 18:07 | 50.42774 | -3.01584 | 14984 ft | 302 kts | 166° |
| 2026-05-07 18:07 | 50.40751 | -3.00674 | 14989 ft | 302 kts | 166° |
| 2026-05-07 18:07 | 50.38728 | -2.99762 | 14985 ft | 302 kts | 166° |
| 2026-05-07 18:08 | 50.36707 | -2.98853 | 14987 ft | 302 kts | 166° |
| 2026-05-07 18:08 | 50.34686 | -2.97948 | 14986 ft | 302 kts | 166° |
| 2026-05-07 18:08 | 50.32663 | -2.97041 | 14984 ft | 302 kts | 166° |
| 2026-05-07 18:08 | 50.30643 | -2.96133 | 14980 ft | 302 kts | 166° |
| 2026-05-07 18:09 | 50.28625 | -2.95225 | 14979 ft | 302 kts | 166° |
| 2026-05-07 18:09 | 50.26604 | -2.94320 | 14981 ft | 302 kts | 166° |
| 2026-05-07 18:09 | 50.24585 | -2.93419 | 14977 ft | 302 kts | 166° |
| 2026-05-07 18:09 | 50.22565 | -2.92520 | 14982 ft | 302 kts | 166° |
| 2026-05-07 18:10 | 50.20547 | -2.91620 | 14977 ft | 302 kts | 166° |
| 2026-05-07 18:10 | 50.18528 | -2.90721 | 14979 ft | 302 kts | 166° |
| 2026-05-07 18:10 | 50.16509 | -2.89822 | 14974 ft | 302 kts | 166° |
| 2026-05-07 18:10 | 50.14489 | -2.88920 | 14974 ft | 302 kts | 166° |
| 2026-05-07 18:11 | 50.12470 | -2.88022 | 14977 ft | 302 kts | 166° |
| 2026-05-07 18:11 | 50.11107 | -2.87417 | 14973 ft | 302 kts | 166° |
| 2026-05-07 18:11 | 50.08433 | -2.86235 | 14976 ft | 302 kts | 166° |
| 2026-05-07 18:11 | 50.06412 | -2.85340 | 14967 ft | 302 kts | 166° |
| 2026-05-07 18:12 | 50.04393 | -2.84446 | 14971 ft | 302 kts | 166° |
| 2026-05-07 18:12 | 50.02376 | -2.83552 | 14967 ft | 302 kts | 166° |
| 2026-05-07 18:12 | 50.00356 | -2.82657 | 14965 ft | 302 kts | 166° |
| 2026-05-07 18:12 | 49.98334 | -2.81790 | 14973 ft | 301 kts | 167° |
| 2026-05-07 18:13 | 49.96303 | -2.80974 | 14968 ft | 301 kts | 168° |
| 2026-05-07 18:13 | 49.94268 | -2.80180 | 14965 ft | 301 kts | 168° |
| 2026-05-07 18:13 | 49.92233 | -2.79393 | 14963 ft | 301 kts | 168° |
| 2026-05-07 18:13 | 49.90198 | -2.78604 | 14959 ft | 302 kts | 168° |
| 2026-05-07 18:14 | 49.88164 | -2.77808 | 14959 ft | 302 kts | 168° |
| 2026-05-07 18:14 | 49.86127 | -2.77006 | 14958 ft | 302 kts | 168° |
| 2026-05-07 18:14 | 49.84092 | -2.76204 | 14960 ft | 302 kts | 168° |
| 2026-05-07 18:14 | 49.82056 | -2.75400 | 14959 ft | 302 kts | 168° |
| 2026-05-07 18:15 | 49.80021 | -2.74594 | 14959 ft | 302 kts | 168° |
| 2026-05-07 18:15 | 49.77988 | -2.73789 | 14958 ft | 302 kts | 168° |
| 2026-05-07 18:15 | 49.76639 | -2.73257 | 14953 ft | 302 kts | 168° |
| 2026-05-07 18:15 | 49.73911 | -2.72183 | 14957 ft | 302 kts | 168° |
| 2026-05-07 18:16 | 49.72562 | -2.71654 | 14954 ft | 302 kts | 168° |
| 2026-05-07 18:16 | 49.70522 | -2.70853 | 14952 ft | 303 kts | 168° |
| 2026-05-07 18:16 | 49.68480 | -2.70049 | 14949 ft | 303 kts | 168° |
| 2026-05-07 18:16 | 49.65746 | -2.68977 | 14944 ft | 303 kts | 168° |
| 2026-05-07 18:17 | 49.64391 | -2.68448 | 14951 ft | 303 kts | 168° |
| 2026-05-07 18:17 | 49.61656 | -2.67378 | 14947 ft | 303 kts | 167° |
| 2026-05-07 18:17 | 49.60301 | -2.66847 | 14949 ft | 304 kts | 167° |
| 2026-05-07 18:17 | 49.57558 | -2.65773 | 14949 ft | 304 kts | 167° |
| 2026-05-07 18:18 | 49.55510 | -2.64974 | 14951 ft | 304 kts | 167° |
| 2026-05-07 18:18 | 49.54151 | -2.64444 | 14946 ft | 304 kts | 167° |
| 2026-05-07 18:18 | 49.52100 | -2.63646 | 14946 ft | 304 kts | 167° |
| 2026-05-07 18:18 | 49.50049 | -2.62849 | 14947 ft | 304 kts | 167° |
| 2026-05-07 18:19 | 49.47995 | -2.62048 | 14942 ft | 304 kts | 167° |
| 2026-05-07 18:19 | 49.45942 | -2.61250 | 14948 ft | 304 kts | 167° |
| 2026-05-07 18:19 | 49.43891 | -2.60429 | 14945 ft | 305 kts | 163° |
| 2026-05-07 18:19 | 49.41938 | -2.59145 | 14943 ft | 306 kts | 157° |
| 2026-05-07 18:20 | 49.40001 | -2.57767 | 14941 ft | 306 kts | 157° |
| 2026-05-07 18:20 | 49.38067 | -2.56391 | 14943 ft | 306 kts | 157° |
| 2026-05-07 18:20 | 49.36133 | -2.55020 | 14941 ft | 307 kts | 157° |
| 2026-05-07 18:20 | 49.34193 | -2.53652 | 14941 ft | 307 kts | 157° |
| 2026-05-07 18:21 | 49.32254 | -2.52285 | 14808 ft | 309 kts | 157° |
| 2026-05-07 18:21 | 49.30257 | -2.50881 | 13949 ft | 324 kts | 157° |
| 2026-05-07 18:21 | 49.28183 | -2.49427 | 12658 ft | 332 kts | 157° |
| 2026-05-07 18:21 | 49.26058 | -2.47935 | 11128 ft | 340 kts | 157° |
| 2026-05-07 18:22 | 49.23892 | -2.46411 | 9602 ft | 344 kts | 157° |
| 2026-05-07 18:22 | 49.22451 | -2.45383 | 8521 ft | 345 kts | 155° |
| 2026-05-07 18:22 | 49.20082 | -2.42153 | 6436 ft | 348 kts | 121° |
| 2026-05-07 18:22 | 49.19377 | -2.38644 | 4935 ft | 350 kts | 94° |
| 2026-05-07 18:23 | 49.19640 | -2.35026 | 4236 ft | 325 kts | 83° |
| 2026-05-07 18:23 | 49.20062 | -2.31917 | 3387 ft | 272 kts | 71° |
| 2026-05-07 18:23 | 49.21198 | -2.30047 | 3058 ft | 220 kts | 28° |
| 2026-05-07 18:23 | 49.22552 | -2.29951 | 2982 ft | 184 kts | 337° |
| 2026-05-07 18:24 | 49.23307 | -2.31286 | 2977 ft | 162 kts | 277° |
| 2026-05-07 18:24 | 49.23027 | -2.32779 | 2990 ft | 144 kts | 226° |
| 2026-05-07 18:24 | 49.22368 | -2.33918 | 2996 ft | 142 kts | 224° |
| 2026-05-07 18:24 | 49.21714 | -2.35045 | 2995 ft | 141 kts | 224° |
| 2026-05-07 18:25 | 49.21061 | -2.36172 | 2999 ft | 142 kts | 224° |
| 2026-05-07 18:25 | 49.20409 | -2.37298 | 3002 ft | 141 kts | 224° |
| 2026-05-07 18:25 | 49.19769 | -2.38405 | 3003 ft | 141 kts | 224° |
| 2026-05-07 18:25 | 49.19194 | -2.39622 | 2997 ft | 145 kts | 240° |
| 2026-05-07 18:26 | 49.18983 | -2.41153 | 3014 ft | 149 kts | 258° |
| 2026-05-07 18:26 | 49.18855 | -2.42720 | 3009 ft | 148 kts | 258° |
| 2026-05-07 18:26 | 49.18723 | -2.44277 | 3007 ft | 148 kts | 258° |
| 2026-05-07 18:26 | 49.18590 | -2.45835 | 2999 ft | 148 kts | 257° |
| 2026-05-07 18:27 | 49.18404 | -2.47371 | 3002 ft | 145 kts | 244° |
| 2026-05-07 18:27 | 49.17867 | -2.48634 | 3002 ft | 141 kts | 220° |
| 2026-05-07 18:27 | 49.17056 | -2.49421 | 3001 ft | 137 kts | 197° |
| 2026-05-07 18:27 | 49.16129 | -2.49634 | 3008 ft | 135 kts | 175° |
| 2026-05-07 18:28 | 49.15226 | -2.49266 | 3000 ft | 135 kts | 153° |
| 2026-05-07 18:28 | 49.14490 | -2.48371 | 2996 ft | 137 kts | 131° |
| 2026-05-07 18:28 | 49.14043 | -2.47078 | 3003 ft | 140 kts | 109° |
| 2026-05-07 18:28 | 49.13988 | -2.45584 | 3002 ft | 144 kts | 84° |
| 2026-05-07 18:29 | 49.14528 | -2.44267 | 3015 ft | 159 kts | 44° |
| 2026-05-07 18:29 | 49.15310 | -2.42975 | 3022 ft | 171 kts | 56° |
| 2026-05-07 18:29 | 49.16056 | -2.41485 | 3011 ft | 181 kts | 56° |
| 2026-05-07 18:29 | 49.16830 | -2.39940 | 3006 ft | 185 kts | 56° |
| 2026-05-07 18:30 | 49.17622 | -2.38362 | 3004 ft | 188 kts | 56° |
| 2026-05-07 18:30 | 49.18420 | -2.36770 | 3002 ft | 189 kts | 56° |
| 2026-05-07 18:30 | 49.19145 | -2.35126 | 2747 ft | 183 kts | 66° |
| 2026-05-07 18:30 | 49.19533 | -2.33310 | 2123 ft | 171 kts | 81° |
| 2026-05-07 18:31 | 49.19738 | -2.31655 | 2018 ft | 151 kts | 84° |
| 2026-05-07 18:31 | 49.19901 | -2.30112 | 1899 ft | 145 kts | 83° |
| 2026-05-07 18:31 | 49.20064 | -2.28622 | 1548 ft | 140 kts | 83° |
| 2026-05-07 18:31 | 49.20197 | -2.27154 | 1065 ft | 142 kts | 85° |
| 2026-05-07 18:32 | 49.20294 | -2.25677 | 763 ft | 134 kts | 84° |
| 2026-05-07 18:32 | 49.20391 | -2.24266 | 563 ft | 131 kts | 81° |
| 2026-05-07 18:32 | 49.20539 | -2.22905 | 469 ft | 130 kts | 78° |
| 2026-05-07 18:32 | 49.20652 | -2.21532 | 392 ft | 131 kts | 83° |
| 2026-05-07 18:33 | 49.20747 | -2.20190 | 283 ft | 108 kts | 82° |
| 2026-05-07 18:33 | 49.20804 | -2.19488 | 286 ft | 48 kts | 82° |
| 2026-05-07 18:33 | 49.20816 | -2.19147 | 285 ft | 27 kts | 93° |
| 2026-05-07 18:33 | 49.20773 | -2.18954 | 289 ft | 16 kts | 112° |
| 2026-05-07 18:34 | 49.20751 | -2.18876 | 284 ft | 0 kts | 117° |
| 2026-05-07 18:34 | 49.20740 | -2.18858 | 287 ft | 8 kts | 141° |
| 2026-05-07 18:34 | 49.20702 | -2.18902 | 284 ft | 8 kts | 257° |
| 2026-05-07 18:34 | 49.20691 | -2.19008 | 288 ft | 15 kts | 262° |
| 2026-05-07 18:35 | 49.20682 | -2.19211 | 284 ft | 21 kts | 279° |
| 2026-05-07 18:35 | 49.20709 | -2.19414 | 284 ft | 18 kts | 281° |
| 2026-05-07 18:35 | 49.20689 | -2.19580 | 287 ft | 15 kts | 251° |
| 2026-05-07 18:35 | 49.20625 | -2.19692 | 284 ft | 13 kts | 227° |
| 2026-05-07 18:36 | 49.20609 | -2.19816 | 284 ft | 11 kts | 265° |
| 2026-05-07 18:36 | 49.20591 | -2.19923 | 289 ft | 10 kts | 226° |
| 2026-05-07 18:36 | 49.20537 | -2.19932 | 284 ft | 7 kts | 175° |
| 2026-05-07 18:36 | 49.20466 | -2.19921 | 284 ft | 13 kts | 169° |
| 2026-05-07 18:37 | 49.20435 | -2.19823 | 284 ft | 10 kts | 89° |
| 2026-05-07 18:37 | 49.20436 | -2.19795 | 284 ft | 0 kts | 84° |
| 2026-05-07 18:37 | 49.20436 | -2.19786 | 284 ft | 5 kts | 84° |
| 2026-05-07 18:37 | 49.20476 | -2.19734 | 284 ft | 10 kts | 356° |
| 2026-05-07 18:38 | 49.20490 | -2.19735 | 284 ft | 0 kts | 355° |